Time;durP1;ratioP1;P1;durP2;ratioP2;P2;SDS_P1;SDS_P2;PMS_P1;PMS_P2;Temp;Humidity;BMP_temperature;BMP_pressure;BME280_temperature;BME280_humidity;BME280_pressure;Samples;Min_cycle;Max_cycle;Signal;HPM_P1;HPM_P2
2021/04/14 00:00:05;;;;;;;46.30;27.48;;;;;;;9.95;94.62;99776.70;1787060;78;21001;-51
2021/04/14 00:02:35;;;;;;;43.83;28.02;;;;;;;9.95;94.52;99780.27;1757961;80;21001;-52
2021/04/14 00:09:08;;;;;;;37.85;25.45;;;;;;;10.01;94.37;99776.88;1789863;77;23397;-49
2021/04/14 00:11:37;;;;;;;39.88;26.27;;;;;;;9.96;94.24;99779.34;1819059;78;21017;-49
2021/04/14 00:14:07;;;;;;;48.85;30.27;;;;;;;9.96;94.16;99777.12;1754453;81;22280;-50
2021/04/14 00:16:35;;;;;;;46.40;29.52;;;;;;;9.93;93.91;99780.83;1760672;81;21037;-50
2021/04/14 00:19:07;;;;;;;50.90;32.23;;;;;;;9.94;93.80;99782.56;1754195;81;20946;-50
2021/04/14 00:21:37;;;;;;;48.38;31.70;;;;;;;9.94;93.61;99777.17;1763460;81;21009;-51
2021/04/14 00:24:06;;;;;;;45.83;30.92;;;;;;;9.96;93.45;99775.30;1754375;80;21550;-51
2021/04/14 00:26:34;;;;;;;44.03;29.60;;;;;;;9.96;93.18;99772.61;1754218;80;21414;-51
2021/04/14 00:29:03;;;;;;;40.48;26.42;;;;;;;9.98;93.17;99777.44;1761573;81;21153;-50
2021/04/14 00:31:35;;;;;;;40.33;24.80;;;;;;;9.97;92.70;99777.05;1754545;81;20993;-50
2021/04/14 00:34:12;;;;;;;36.63;24.35;;;;;;;9.97;92.36;99773.01;1762142;81;21565;-50
2021/04/14 00:36:42;;;;;;;37.65;23.27;;;;;;;9.98;92.20;99770.70;1753954;81;21140;-50
2021/04/14 00:39:18;;;;;;;38.50;22.67;;;;;;;9.97;91.93;99771.66;1761814;81;22350;-50
2021/04/14 00:41:54;;;;;;;37.23;24.55;;;;;;;10.03;91.64;99764.23;1815956;76;22737;-51
2021/04/14 00:44:22;;;;;;;38.13;25.62;;;;;;;9.97;91.26;99762.23;1771607;77;20927;-55
2021/04/14 00:46:50;;;;;;;36.50;25.17;;;;;;;9.96;90.26;99767.22;1762722;79;21394;-51
2021/04/14 00:49:18;;;;;;;29.35;21.62;;;;;;;9.96;89.82;99769.92;1764889;79;21655;-50
2021/04/14 00:51:48;;;;;;;28.00;20.15;;;;;;;9.96;89.53;99764.53;1759848;78;21033;-50
2021/04/14 00:54:17;;;;;;;28.57;18.92;;;;;;;9.98;89.50;99767.14;1758545;79;21561;-50
2021/04/14 00:56:45;;;;;;;29.37;19.07;;;;;;;9.96;89.93;99769.92;1763988;79;21514;-50
2021/04/14 00:59:13;;;;;;;24.80;16.65;;;;;;;9.96;89.93;99769.92;1757842;79;21396;-49
2021/04/14 01:01:43;;;;;;;27.37;18.00;;;;;;;9.95;89.82;99768.14;1759767;79;21575;-50
2021/04/14 01:04:11;;;;;;;28.83;17.25;;;;;;;9.95;89.88;99770.84;1762329;79;22110;-49
2021/04/14 01:06:39;;;;;;;20.85;15.60;;;;;;;9.91;90.04;99758.48;1763108;79;21005;-51
2021/04/14 01:09:08;;;;;;;26.57;16.57;;;;;;;9.89;90.05;99752.28;1763779;79;21147;-49
2021/04/14 01:11:36;;;;;;;23.42;16.57;;;;;;;9.91;90.12;99761.18;1757184;79;21288;-50
2021/04/14 01:14:04;;;;;;;23.70;17.45;;;;;;;9.90;90.00;99756.71;1750511;80;21002;-50
2021/04/14 01:16:33;;;;;;;27.85;16.12;;;;;;;9.90;90.00;99756.71;1757510;79;21124;-50
2021/04/14 01:19:02;;;;;;;27.40;17.40;;;;;;;9.88;90.22;99749.19;1757209;79;21937;-50
2021/04/14 01:21:36;;;;;;;25.68;15.70;;;;;;;9.87;90.33;99752.83;1760184;79;21096;-50
2021/04/14 01:24:11;;;;;;;21.93;15.60;;;;;;;9.83;90.55;99749.87;1757984;79;21051;-50
2021/04/14 01:26:39;;;;;;;26.48;16.87;;;;;;;9.83;90.55;99749.87;1758555;78;21782;-49
2021/04/14 01:29:09;;;;;;;21.33;15.78;;;;;;;9.83;90.37;99745.84;1758757;79;21069;-49
2021/04/14 01:31:39;;;;;;;23.47;16.45;;;;;;;9.82;89.92;99745.44;1762327;79;22072;-50
2021/04/14 01:34:11;;;;;;;24.35;16.75;;;;;;;9.82;89.70;99750.83;1758229;79;21053;-50
2021/04/14 01:36:39;;;;;;;21.07;14.68;;;;;;;9.81;89.26;99745.05;1759485;79;21500;-53
2021/04/14 01:39:09;;;;;;;24.63;16.30;;;;;;;9.81;89.26;99745.05;1759457;78;21715;-50
2021/04/14 01:41:37;;;;;;;21.87;14.70;;;;;;;9.80;89.17;99743.30;1761606;79;21651;-52
2021/04/14 01:44:10;;;;;;;18.82;14.73;;;;;;;9.78;88.98;99749.22;1764268;79;21401;-50
2021/04/14 01:46:38;;;;;;;24.07;16.17;;;;;;;9.78;88.98;99749.22;1766903;79;20978;-51
2021/04/14 01:49:07;;;;;;;21.57;14.83;;;;;;;9.76;88.70;99742.17;1767532;79;21145;-50
2021/04/14 01:51:36;;;;;;;26.20;15.70;;;;;;;9.73;88.58;99747.21;1763783;79;21604;-52
2021/04/14 01:54:05;;;;;;;23.38;15.28;;;;;;;9.69;88.48;99750.55;1764788;79;21656;-53
2021/04/14 01:56:35;;;;;;;24.10;15.32;;;;;;;9.65;88.57;99748.93;1766079;79;21152;-51
2021/04/14 01:59:04;;;;;;;23.73;15.50;;;;;;;9.65;88.57;99748.93;1764559;79;21116;-49
2021/04/14 02:01:33;;;;;;;25.65;15.88;;;;;;;9.65;88.50;99754.80;1765965;79;21381;-50
2021/04/14 02:04:02;;;;;;;25.37;15.70;;;;;;;9.66;88.53;99749.80;1763091;78;21009;-51
2021/04/14 02:06:31;;;;;;;22.42;15.10;;;;;;;9.65;88.58;99746.23;1763814;78;20957;-50
2021/04/14 02:08:59;;;;;;;21.82;15.45;;;;;;;9.65;88.68;99739.98;1761262;78;21120;-51
2021/04/14 02:11:27;;;;;;;21.02;14.43;;;;;;;9.65;88.56;99735.47;1763742;78;20989;-49
2021/04/14 02:13:55;;;;;;;22.80;14.60;;;;;;;9.68;88.74;99737.13;1763115;79;21380;-49
2021/04/14 02:16:23;;;;;;;20.35;15.18;;;;;;;9.69;88.68;99733.48;1763494;78;21874;-50
2021/04/14 02:18:52;;;;;;;26.57;16.07;;;;;;;9.69;88.59;99735.73;1770385;78;21012;-50
2021/04/14 02:21:21;;;;;;;25.00;15.28;;;;;;;9.72;88.51;99732.01;1763207;78;21158;-50
2021/04/14 02:23:49;;;;;;;22.20;15.13;;;;;;;9.72;88.40;99730.66;1762868;79;21009;-49
2021/04/14 02:26:20;;;;;;;27.52;17.15;;;;;;;9.75;88.34;99741.30;1763164;78;21481;-49
2021/04/14 02:28:48;;;;;;;26.73;16.50;;;;;;;9.73;88.26;99736.44;1762188;79;21167;-48
2021/04/14 02:31:31;;;;;;;27.48;15.15;;;;;;;9.76;88.21;99731.41;1763659;79;21232;-49
2021/04/14 02:34:07;;;;;;;23.25;15.10;;;;;;;9.78;87.98;99734.41;1763808;78;20993;-50
2021/04/14 02:36:35;;;;;;;22.65;14.53;;;;;;;9.79;87.77;99744.23;1770622;78;20982;-50
2021/04/14 02:39:04;;;;;;;25.70;14.98;;;;;;;9.78;87.34;99741.14;1762921;78;21371;-49
2021/04/14 02:41:32;;;;;;;22.30;15.35;;;;;;;9.75;87.14;99742.65;1763061;78;21011;-50
2021/04/14 02:44:00;;;;;;;22.80;15.60;;;;;;;9.70;87.04;99741.98;1760791;78;21545;-51
2021/04/14 02:46:29;;;;;;;20.37;14.83;;;;;;;9.67;87.06;99737.60;1759816;78;21477;-49
2021/04/14 02:48:57;;;;;;;24.10;13.83;;;;;;;9.64;86.67;99739.55;1758941;78;21708;-49
2021/04/14 02:51:25;;;;;;;23.45;15.18;;;;;;;9.60;86.43;99734.81;1764617;78;21361;-50
2021/04/14 02:53:53;;;;;;;24.10;14.25;;;;;;;9.56;86.19;99728.28;1758073;79;21553;-50
2021/04/14 02:56:21;;;;;;;20.17;14.28;;;;;;;9.51;86.09;99733.01;1757428;79;21139;-51
2021/04/14 02:58:49;;;;;;;21.05;14.13;;;;;;;9.47;86.00;99738.12;1756767;78;21032;-50
2021/04/14 03:01:17;;;;;;;24.52;14.00;;;;;;;9.42;85.70;99737.86;1758686;79;21006;-51
2021/04/14 03:03:45;;;;;;;22.55;14.50;;;;;;;9.36;85.48;99731.41;1761308;79;21660;-50
2021/04/14 03:06:13;;;;;;;21.97;14.45;;;;;;;9.30;85.38;99734.39;1757768;79;20985;-52
2021/04/14 03:08:41;;;;;;;23.60;16.10;;;;;;;9.30;85.30;99734.39;1757695;79;21461;-53
2021/04/14 03:11:09;;;;;;;25.00;17.17;;;;;;;9.27;85.11;99739.92;1757146;79;21151;-52
2021/04/14 03:13:38;;;;;;;25.80;17.80;;;;;;;9.22;85.02;99736.56;1760920;79;21565;-52
2021/04/14 03:16:07;;;;;;;28.75;19.07;;;;;;;9.16;85.05;99740.84;1758932;79;21420;-51
2021/04/14 03:18:35;;;;;;;30.37;18.48;;;;;;;9.14;85.17;99729.30;1760430;79;20982;-50
2021/04/14 03:21:03;;;;;;;26.90;18.62;;;;;;;9.13;85.02;99741.00;1757740;79;21132;-52
2021/04/14 03:23:31;;;;;;;30.10;19.57;;;;;;;9.11;84.98;99741.56;1762682;79;21013;-52
2021/04/14 03:25:59;;;;;;;26.85;16.97;;;;;;;9.07;84.99;99731.86;1760289;79;20982;-51
2021/04/14 03:28:27;;;;;;;30.45;18.75;;;;;;;9.03;84.91;99738.31;1758576;79;22198;-52
2021/04/14 03:30:55;;;;;;;34.60;17.85;;;;;;;9.00;85.01;99739.78;1758244;79;21124;-51
2021/04/14 03:33:23;;;;;;;28.77;17.05;;;;;;;9.01;85.12;99740.21;1761684;79;21005;-51
2021/04/14 03:35:53;;;;;;;30.23;16.70;;;;;;;9.01;85.06;99740.21;1757899;79;20938;-53
2021/04/14 03:38:21;;;;;;;30.12;17.90;;;;;;;9.00;85.04;99743.81;1731446;79;21848;-51
2021/04/14 03:40:49;;;;;;;31.37;17.95;;;;;;;8.97;85.03;99743.97;1759691;79;21418;-50
2021/04/14 03:43:17;;;;;;;31.80;19.55;;;;;;;8.96;84.98;99748.95;1761956;79;21130;-52
2021/04/14 03:45:48;;;;;;;31.68;19.67;;;;;;;8.94;85.03;99744.96;1764851;79;21520;-53
2021/04/14 03:48:15;;;;;;;36.10;20.68;;;;;;;8.95;85.04;99752.11;1765643;79;21104;-51
2021/04/14 03:50:43;;;;;;;37.40;20.45;;;;;;;8.93;84.93;99751.29;1774603;79;20985;-52
2021/04/14 03:53:15;;;;;;;36.77;21.02;;;;;;;8.92;84.93;99755.80;1763412;79;21382;-50
2021/04/14 03:55:44;;;;;;;35.83;21.15;;;;;;;8.91;84.86;99751.36;1765726;79;20997;-51
2021/04/14 03:58:12;;;;;;;32.85;21.68;;;;;;;8.89;84.83;99747.88;1767151;79;21576;-50
2021/04/14 04:00:40;;;;;;;33.15;19.65;;;;;;;8.89;84.74;99751.91;1764368;79;21169;-49
2021/04/14 04:03:07;;;;;;;30.65;20.45;;;;;;;8.90;84.73;99755.00;1762948;79;21161;-50
2021/04/14 04:05:36;;;;;;;31.07;19.50;;;;;;;8.90;84.58;99746.93;1765102;79;21435;-50
2021/04/14 04:08:04;;;;;;;29.37;18.20;;;;;;;8.93;84.53;99749.47;1763346;79;21147;-51
2021/04/14 04:10:34;;;;;;;23.83;16.80;;;;;;;8.96;84.32;99743.09;1763395;78;21096;-51
2021/04/14 04:13:02;;;;;;;31.40;16.52;;;;;;;8.99;84.06;99742.08;1762152;79;21142;-51
2021/04/14 04:15:31;;;;;;;30.40;17.55;;;;;;;9.00;83.78;99747.85;1764218;79;21001;-51
2021/04/14 04:18:02;;;;;;;27.02;17.40;;;;;;;9.00;83.51;99744.72;1761892;79;21373;-51
2021/04/14 04:20:29;;;;;;;27.13;15.85;;;;;;;9.02;83.23;99735.23;1762397;79;21232;-51
2021/04/14 04:22:58;;;;;;;26.77;17.07;;;;;;;9.06;83.00;99740.88;1765556;79;21402;-51
2021/04/14 04:25:29;;;;;;;26.15;18.30;;;;;;;9.06;82.75;99739.54;1764581;78;21009;-52
2021/04/14 04:27:57;;;;;;;26.50;17.60;;;;;;;9.08;82.30;99743.02;1761473;79;21118;-52
2021/04/14 04:30:26;;;;;;;23.73;16.30;;;;;;;9.08;81.65;99749.75;1763033;79;21407;-50
2021/04/14 04:32:55;;;;;;;25.70;16.10;;;;;;;9.07;80.93;99748.01;1762726;79;21005;-52
2021/04/14 04:35:23;;;;;;;26.95;17.20;;;;;;;9.05;80.56;99753.43;1762406;79;21059;-53
2021/04/14 04:37:51;;;;;;;25.17;17.05;;;;;;;9.08;80.40;99760.51;1767028;79;20973;-51
2021/04/14 04:40:19;;;;;;;32.13;17.00;;;;;;;9.09;79.93;99755.53;1762754;79;21199;-51
2021/04/14 04:42:48;;;;;;;30.52;16.82;;;;;;;9.10;79.39;99753.23;1774467;79;21277;-53
2021/04/14 04:45:17;;;;;;;32.50;17.85;;;;;;;9.13;79.03;99753.11;1762687;79;21024;-51
2021/04/14 04:47:45;;;;;;;26.77;16.77;;;;;;;9.15;78.86;99753.91;1763886;79;21549;-51
2021/04/14 04:50:14;;;;;;;26.42;16.37;;;;;;;9.16;78.46;99763.28;1762588;79;21162;-51
2021/04/14 04:52:42;;;;;;;27.80;16.97;;;;;;;9.17;78.19;99761.45;1762896;79;21111;-52
2021/04/14 04:55:12;;;;;;;24.35;15.65;;;;;;;9.17;77.94;99757.42;1762340;79;21206;-51
2021/04/14 04:57:40;;;;;;;21.25;15.20;;;;;;;9.18;77.64;99765.89;1763387;79;21163;-52
2021/04/14 05:00:09;;;;;;;28.23;15.28;;;;;;;9.17;77.21;99765.49;1763218;79;21195;-49
2021/04/14 05:02:38;;;;;;;26.70;15.30;;;;;;;9.17;77.21;99765.49;1764043;79;21524;-52
2021/04/14 05:05:13;;;;;;;22.95;16.37;;;;;;;9.15;76.90;99760.62;1747090;79;21140;-51
2021/04/14 05:07:41;;;;;;;28.70;16.93;;;;;;;9.18;76.98;99767.23;1763791;79;22261;-51
2021/04/14 05:10:12;;;;;;;24.67;15.08;;;;;;;9.19;76.78;99766.28;1767892;79;21193;-51
2021/04/14 05:12:40;;;;;;;26.80;15.03;;;;;;;9.20;76.63;99765.34;1768443;78;21165;-51
2021/04/14 05:15:08;;;;;;;20.88;14.15;;;;;;;9.21;76.40;99764.39;1767363;78;21600;-49
2021/04/14 05:17:37;;;;;;;25.95;15.63;;;;;;;9.21;75.89;99764.39;1763546;78;21104;-50
2021/04/14 05:20:08;;;;;;;32.35;16.95;;;;;;;9.23;75.56;99770.59;1762910;79;21186;-51
2021/04/14 05:22:38;;;;;;;30.97;17.10;;;;;;;9.23;75.14;99767.91;1764156;79;21219;-45
2021/04/14 05:25:09;;;;;;;28.75;17.37;;;;;;;9.24;75.20;99769.65;1765496;79;21364;-45
2021/04/14 05:27:38;;;;;;;29.07;16.23;;;;;;;9.27;75.29;99774.91;1766526;79;21135;-47
2021/04/14 05:30:07;;;;;;;27.93;16.15;;;;;;;9.28;74.89;99769.92;1765928;79;21100;-48
2021/04/14 05:32:36;;;;;;;23.22;15.85;;;;;;;9.31;74.71;99765.73;1767443;78;21352;-48
2021/04/14 05:35:05;;;;;;;26.57;16.48;;;;;;;9.33;74.31;99769.25;1766582;78;21146;-49
2021/04/14 05:37:33;;;;;;;30.65;17.07;;;;;;;9.37;74.16;99769.96;1764296;78;21123;-47
2021/04/14 05:40:01;;;;;;;31.37;17.70;;;;;;;9.38;73.87;99768.57;1769860;78;21148;-48
2021/04/14 05:42:29;;;;;;;26.60;15.48;;;;;;;9.39;73.70;99774.34;1767000;78;21524;-49
2021/04/14 05:44:57;;;;;;;27.20;15.38;;;;;;;9.41;73.73;99770.23;1767221;79;22345;-47
2021/04/14 05:47:25;;;;;;;28.77;15.63;;;;;;;9.43;73.72;99765.20;1763123;78;21052;-48
2021/04/14 05:49:54;;;;;;;28.32;16.57;;;;;;;9.43;73.46;99762.98;1770530;78;20980;-49
2021/04/14 05:52:22;;;;;;;32.67;17.75;;;;;;;9.48;73.53;99777.55;1764755;78;21116;-49
2021/04/14 05:54:50;;;;;;;41.13;18.77;;;;;;;9.53;72.96;99772.83;1767340;79;21139;-50
2021/04/14 05:57:18;;;;;;;46.13;19.87;;;;;;;9.53;72.96;99772.83;1767768;79;21380;-50
2021/04/14 05:59:46;;;;;;;35.33;19.40;;;;;;;9.56;72.66;99775.41;1765783;79;21121;-48
2021/04/14 06:02:14;;;;;;;33.60;16.60;;;;;;;9.63;71.58;99771.47;1765752;78;21577;-49
2021/04/14 06:04:42;;;;;;;35.48;17.27;;;;;;;9.63;71.58;99771.47;1766378;78;21059;-48
2021/04/14 06:07:11;;;;;;;28.00;17.90;;;;;;;9.65;71.18;99773.16;1765893;78;21097;-49
2021/04/14 06:09:38;;;;;;;25.75;16.48;;;;;;;9.70;71.01;99772.95;1766032;79;22357;-49
2021/04/14 06:12:07;;;;;;;26.85;16.75;;;;;;;9.75;70.72;99770.92;1768596;79;21561;-50
2021/04/14 06:14:35;;;;;;;29.90;17.35;;;;;;;9.79;70.22;99775.20;1766016;78;21151;-51
2021/04/14 06:17:05;;;;;;;23.27;15.75;;;;;;;9.84;70.33;99774.98;1767086;79;22126;-50
2021/04/14 06:19:35;;;;;;;21.95;14.23;;;;;;;9.88;69.50;99773.43;1763598;78;21139;-50
2021/04/14 06:22:06;;;;;;;24.32;15.18;;;;;;;9.92;69.20;99771.48;1763782;79;21808;-51
2021/04/14 06:24:35;;;;;;;21.62;14.35;;;;;;;9.96;69.28;99767.22;1762879;78;21594;-48
2021/04/14 06:27:06;;;;;;;26.62;14.45;;;;;;;10.03;69.05;99766.92;1762452;78;21179;-57
2021/04/14 06:29:33;;;;;;;22.85;15.95;;;;;;;10.06;68.80;99777.54;1764878;78;21123;-49
2021/04/14 06:32:03;;;;;;;23.85;15.43;;;;;;;10.07;68.40;99765.84;1765177;78;21167;-51
2021/04/14 06:34:31;;;;;;;27.48;16.02;;;;;;;10.08;68.06;99765.76;1765823;78;21201;-48
2021/04/14 06:37:00;;;;;;;25.52;14.78;;;;;;;10.12;67.83;99763.77;1763233;78;21166;-48
2021/04/14 06:39:33;;;;;;;26.45;17.52;;;;;;;10.14;67.27;99768.16;1763725;78;21175;-50
2021/04/14 06:42:26;;;;;;;23.55;15.25;;;;;;;10.15;66.86;99766.33;1763528;78;21175;-50
2021/04/14 06:45:17;;;;;;;;;;;;;;;10.16;66.11;99774.33;1771689;78;21125;-49
2021/04/14 06:47:51;;;;;;;;;;;;;;;10.21;66.24;99764.67;1715949;82;22091;-50
2021/04/14 06:50:34;;;;;;;25.40;15.45;;;;;;;10.26;65.64;99774.80;1699529;83;20643;-49
2021/04/14 06:53:55;;;;;;;21.42;14.90;;;;;;;10.37;65.64;99760.79;1805002;76;22738;-50
2021/04/14 06:56:23;;;;;;;22.10;14.60;;;;;;;10.39;65.06;99763.83;1780505;79;21053;-49
2021/04/14 06:58:56;;;;;;;24.43;15.38;;;;;;;10.44;64.93;99760.44;1729489;80;21368;-51
2021/04/14 07:01:28;;;;;;;25.43;14.55;;;;;;;10.55;64.70;99762.59;1748219;80;21078;-51
2021/04/14 07:04:14;;;;;;;25.45;15.05;;;;;;;10.66;64.63;99764.75;1719205;81;28179;-53
2021/04/14 07:06:43;;;;;;;22.60;14.38;;;;;;;10.89;63.73;99759.05;1718585;82;21230;-50
2021/04/14 07:09:35;;;;;;;25.55;15.53;;;;;;;10.89;63.73;99759.05;1718060;82;20990;-51
2021/04/14 07:12:10;;;;;;;24.60;15.72;;;;;;;11.04;63.58;99764.13;1713983;82;21036;-50
2021/04/14 07:14:40;;;;;;;22.10;15.03;;;;;;;11.19;63.13;99770.09;1745113;79;20985;-53
2021/04/14 07:17:28;;;;;;;22.87;15.30;;;;;;;11.33;62.80;99772.04;1719486;80;21030;-53
2021/04/14 07:20:23;;;;;;;24.92;14.33;;;;;;;11.44;62.45;99770.98;1695324;82;21582;-49
2021/04/14 07:23:08;;;;;;;32.53;13.80;;;;;;;11.57;61.78;99767.17;1741890;81;21580;-49
2021/04/14 07:26:25;;;;;;;23.70;13.13;;;;;;;11.73;61.09;99768.08;1719973;81;21215;-49
2021/04/14 07:29:23;;;;;;;23.83;13.88;;;;;;;11.82;59.57;99765.36;1719591;80;21018;-50
2021/04/14 07:32:17;;;;;;;23.62;12.25;;;;;;;11.88;58.91;99769.11;1717048;81;20994;-48
2021/04/14 07:38:14;;;;;;;21.60;12.75;;;;;;;12.01;58.97;99768.80;1807631;76;22885;-49
2021/04/14 07:40:59;;;;;;;25.23;13.50;;;;;;;11.99;58.24;99770.73;1751722;79;21006;-48
2021/04/14 07:43:35;;;;;;;21.85;13.55;;;;;;;12.05;58.37;99773.08;1749296;79;21427;-48
2021/04/14 07:46:04;;;;;;;24.75;11.40;;;;;;;12.10;57.53;99770.13;1754489;79;20998;-47
2021/04/14 07:48:33;;;;;;;23.07;13.95;;;;;;;12.17;57.83;99780.11;1750103;79;21005;-48
2021/04/14 07:51:03;;;;;;;26.15;14.13;;;;;;;12.23;57.17;99783.81;1748121;80;21061;-49
2021/04/14 07:53:35;;;;;;;21.52;14.15;;;;;;;12.25;57.22;99780.53;1747992;80;21012;-49
2021/04/14 07:56:20;;;;;;;29.75;16.82;;;;;;;12.24;57.01;99778.80;1751886;80;21365;-50
2021/04/14 07:59:06;;;;;;;31.48;17.07;;;;;;;12.28;56.85;99777.67;1752837;80;21033;-51
2021/04/14 08:01:34;;;;;;;23.35;15.53;;;;;;;12.25;56.50;99777.83;1749097;79;21002;-49
2021/04/14 08:04:16;;;;;;;29.55;15.43;;;;;;;12.27;56.61;99778.63;1752614;79;21413;-48
2021/04/14 08:06:44;;;;;;;29.48;15.90;;;;;;;12.27;56.37;99789.45;1749237;80;21443;-50
2021/04/14 08:09:17;;;;;;;27.02;14.78;;;;;;;12.21;56.44;99791.16;1747684;79;22703;-48
2021/04/14 08:11:46;;;;;;;21.10;15.00;;;;;;;12.19;56.59;99793.05;1749272;79;21148;-48
2021/04/14 08:14:28;;;;;;;28.62;16.23;;;;;;;12.21;56.39;99786.61;1755301;79;21116;-49
2021/04/14 08:16:56;;;;;;;22.15;14.15;;;;;;;12.24;56.67;99781.50;1751601;79;21542;-49
2021/04/14 08:19:29;;;;;;;24.43;15.55;;;;;;;12.26;56.91;99785.00;1713465;81;21147;-49
2021/04/14 08:22:09;;;;;;;30.75;16.50;;;;;;;12.32;57.14;99788.23;1715276;81;21282;-50
2021/04/14 08:24:55;;;;;;;31.50;16.80;;;;;;;12.46;55.83;99776.59;1833078;74;22637;-49
2021/04/14 08:27:44;;;;;;;33.05;17.35;;;;;;;12.50;55.66;99783.59;1847772;77;20942;-49
2021/04/14 08:30:16;;;;;;;28.80;14.58;;;;;;;12.58;55.58;99775.91;1802505;78;21371;-51
2021/04/14 08:32:56;;;;;;;27.75;15.70;;;;;;;12.67;54.17;99769.55;1775160;80;20988;-50
2021/04/14 08:35:41;;;;;;;33.63;17.42;;;;;;;12.73;53.02;99766.48;1778213;79;21675;-50
2021/04/14 08:38:15;;;;;;;36.25;14.75;;;;;;;12.82;52.28;99763.24;1750471;77;21063;-49
2021/04/14 08:40:49;;;;;;;32.85;15.40;;;;;;;12.90;50.71;99756.04;1802474;78;21605;-50
2021/04/14 08:43:38;;;;;;;33.00;16.02;;;;;;;12.97;49.76;99752.86;1801365;78;21370;-49
2021/04/14 08:46:21;;;;;;;30.40;15.98;;;;;;;13.00;49.32;99741.86;1798543;78;21147;-53
2021/04/14 08:49:00;;;;;;;29.40;15.23;;;;;;;13.07;49.21;99748.64;1799808;78;21058;-50
2021/04/14 08:51:29;;;;;;;33.00;16.52;;;;;;;13.09;49.55;99746.69;1799930;78;21486;-49
2021/04/14 08:53:58;;;;;;;27.35;16.50;;;;;;;13.14;49.69;99739.65;1793521;78;20954;-48
2021/04/14 08:56:26;;;;;;;34.83;17.00;;;;;;;13.20;49.65;99739.75;1793839;79;21355;-50
2021/04/14 08:58:55;;;;;;;31.05;15.63;;;;;;;13.24;49.74;99735.94;1800873;78;20976;-49
2021/04/14 09:01:23;;;;;;;32.83;18.67;;;;;;;13.31;49.85;99726.45;1791022;79;21570;-49
2021/04/14 09:03:54;;;;;;;31.35;16.70;;;;;;;13.36;49.70;99721.63;1796215;78;21005;-48
2021/04/14 09:06:21;;;;;;;31.95;18.17;;;;;;;13.39;49.79;99718.73;1794259;79;20952;-48
2021/04/14 09:08:52;;;;;;;36.13;18.50;;;;;;;13.43;50.01;99717.59;1796441;78;22235;-50
2021/04/14 09:11:29;;;;;;;37.53;16.90;;;;;;;13.49;50.39;99714.48;1790672;79;20982;-48
2021/04/14 09:14:05;;;;;;;41.35;16.97;;;;;;;13.53;50.34;99709.27;1790070;79;21153;-48
2021/04/14 09:16:53;;;;;;;31.85;15.90;;;;;;;13.57;50.06;99712.15;1793542;79;21136;-57
2021/04/14 09:19:44;;;;;;;32.83;15.45;;;;;;;13.58;49.48;99709.85;1763423;79;21556;-57
2021/04/14 09:22:27;;;;;;;35.38;15.25;;;;;;;13.56;49.76;99707.70;1788448;79;21337;-59
2021/04/14 09:25:12;;;;;;;36.70;17.23;;;;;;;13.59;49.99;99704.81;1776028;79;20991;-58
2021/04/14 09:27:47;;;;;;;29.02;15.53;;;;;;;13.62;50.14;99696.47;1796508;79;21000;-63
2021/04/14 09:30:40;;;;;;;33.48;15.28;;;;;;;13.63;50.52;99696.88;1796093;79;20914;-58
2021/04/14 09:33:33;;;;;;;27.05;14.83;;;;;;;13.67;50.57;99687.19;1793055;78;21282;-59
2021/04/14 09:36:05;;;;;;;32.35;15.45;;;;;;;13.69;50.73;99689.30;1793372;79;22248;-56
2021/04/14 09:38:46;;;;;;;25.55;14.25;;;;;;;13.73;51.00;99689.50;1796262;78;20988;-56
2021/04/14 09:41:14;;;;;;;28.73;14.95;;;;;;;13.82;51.17;99686.20;1794529;79;21193;-57
2021/04/14 09:43:45;;;;;;;31.20;15.38;;;;;;;13.90;50.77;99679.78;1793854;78;21095;-57
2021/04/14 09:46:33;;;;;;;23.32;13.75;;;;;;;13.96;50.79;99673.98;1794751;79;21537;-57
2021/04/14 09:49:14;;;;;;;27.13;15.43;;;;;;;14.04;50.83;99672.98;1791059;78;21025;-56
2021/04/14 09:51:55;;;;;;;26.87;13.85;;;;;;;14.16;50.65;99666.73;1791038;78;21001;-55
2021/04/14 09:54:28;;;;;;;23.63;12.87;;;;;;;14.27;50.60;99667.87;1790034;78;21170;-57
2021/04/14 09:56:58;;;;;;;24.23;14.63;;;;;;;14.39;50.45;99657.57;1789939;78;20941;-57
2021/04/14 09:59:33;;;;;;;23.32;13.15;;;;;;;14.55;50.25;99662.38;1787231;78;21143;-59
2021/04/14 10:02:13;;;;;;;22.20;12.50;;;;;;;14.77;49.55;99658.19;1810515;76;22728;-56
2021/04/14 10:04:42;;;;;;;20.00;12.40;;;;;;;14.82;49.25;99661.45;1807845;76;20966;-58
2021/04/14 10:07:21;;;;;;;20.62;13.58;;;;;;;14.88;49.02;99655.59;1791618;77;21192;-58
2021/04/14 10:09:50;;;;;;;23.02;12.50;;;;;;;14.94;48.83;99641.58;1794278;77;21072;-57
2021/04/14 10:12:23;;;;;;;20.48;12.23;;;;;;;14.98;48.05;99646.32;1790233;77;20993;-57
2021/04/14 10:14:55;;;;;;;19.67;12.50;;;;;;;14.96;48.08;99647.77;1790610;77;21069;-59
2021/04/14 10:17:26;;;;;;;19.52;11.15;;;;;;;14.94;48.31;99638.38;1789455;77;20970;-59
2021/04/14 10:20:01;;;;;;;19.40;11.55;;;;;;;14.97;48.35;99634.59;1793744;77;21020;-57
2021/04/14 10:22:35;;;;;;;16.62;10.70;;;;;;;15.02;47.96;99640.58;1790655;77;20958;-57
2021/04/14 10:25:10;;;;;;;17.67;11.08;;;;;;;15.06;47.81;99633.92;1798001;77;21596;-59
2021/04/14 10:27:39;;;;;;;16.17;11.00;;;;;;;15.12;47.60;99636.20;1794964;77;21052;-56
2021/04/14 10:30:08;;;;;;;18.23;11.03;;;;;;;15.16;47.33;99633.66;1796968;77;21143;-58
2021/04/14 10:32:37;;;;;;;15.63;11.25;;;;;;;15.17;47.30;99632.67;1794059;77;22218;-58
2021/04/14 10:35:15;;;;;;;17.75;11.35;;;;;;;15.19;47.50;99630.73;1794472;77;21477;-58
2021/04/14 10:37:53;;;;;;;16.52;11.38;;;;;;;15.28;47.39;99622.88;1811737;78;22720;-58
2021/04/14 10:40:37;;;;;;;15.50;10.60;;;;;;;15.25;47.14;99628.55;1755348;79;20982;-59
2021/04/14 10:43:21;;;;;;;17.35;11.40;;;;;;;15.26;47.09;99631.16;1706375;83;21782;-57
2021/04/14 10:45:59;;;;;;;15.93;11.05;;;;;;;15.30;47.24;99623.66;1693747;82;21004;-57
2021/04/14 10:48:28;;;;;;;14.35;10.35;;;;;;;15.40;47.27;99623.38;1691485;83;21224;-58
2021/04/14 10:51:22;;;;;;;17.77;9.88;;;;;;;15.48;47.00;99620.96;1694392;82;21124;-58
2021/04/14 10:53:56;;;;;;;16.82;9.83;;;;;;;15.58;47.32;99617.95;1695416;82;21028;-56
2021/04/14 10:56:31;;;;;;;15.50;9.93;;;;;;;15.75;46.85;99615.88;1705388;83;21397;-58
2021/04/14 10:59:06;;;;;;;18.35;9.90;;;;;;;15.89;46.27;99610.30;1704059;83;21013;-56
2021/04/14 11:01:41;;;;;;;18.25;9.90;;;;;;;16.02;45.93;99604.30;1731715;80;21002;-56
2021/04/14 11:04:14;;;;;;;18.12;9.85;;;;;;;16.14;45.54;99595.23;1757169;80;21902;-59
2021/04/14 11:06:48;;;;;;;14.45;8.15;;;;;;;16.23;45.03;99598.59;1750784;80;21010;-58
2021/04/14 11:09:17;;;;;;;14.23;9.15;;;;;;;16.35;44.33;99598.64;1751816;80;21198;-47
2021/04/14 11:11:45;;;;;;;17.07;9.53;;;;;;;16.44;43.70;99595.22;1756392;80;20996;-50
2021/04/14 11:14:16;;;;;;;21.68;9.05;;;;;;;16.53;43.88;99594.52;1754080;80;21405;-52
2021/04/14 11:16:46;;;;;;;14.83;8.75;;;;;;;16.64;42.88;99589.10;1753072;80;21130;-51
2021/04/14 11:19:23;;;;;;;15.75;9.00;;;;;;;16.71;42.41;99590.39;1756517;80;21109;-52
2021/04/14 11:22:07;;;;;;;10.82;8.18;;;;;;;16.67;41.53;99586.16;1757807;80;21132;-51
2021/04/14 11:24:51;;;;;;;14.40;8.15;;;;;;;16.63;41.29;99581.93;1759212;80;21028;-50
2021/04/14 11:27:28;;;;;;;13.60;8.90;;;;;;;16.63;41.52;99576.48;1750639;80;21747;-51
2021/04/14 11:30:15;;;;;;;12.18;7.37;;;;;;;16.67;41.03;99583.44;1750160;80;21023;-50
2021/04/14 11:36:56;;;;;;;13.18;8.08;;;;;;;16.78;40.84;99579.91;1784887;78;22836;-50
2021/04/14 11:39:24;;;;;;;13.95;7.40;;;;;;;16.71;40.82;99574.05;1740243;79;21266;-53
2021/04/14 11:42:12;;;;;;;11.50;6.90;;;;;;;16.69;40.56;99565.11;1739134;80;21512;-51
2021/04/14 11:44:43;;;;;;;17.55;8.35;;;;;;;16.65;40.75;99563.61;1734000;80;21013;-50
2021/04/14 11:47:38;;;;;;;12.88;8.20;;;;;;;16.60;40.51;99567.18;1736696;81;21444;-52
2021/04/14 11:50:22;;;;;;;11.73;7.22;;;;;;;16.57;40.56;99562.49;1732935;81;20998;-51
2021/04/14 11:52:54;;;;;;;12.63;7.50;;;;;;;16.54;40.78;99562.22;1732122;81;21102;-51
2021/04/14 11:55:37;;;;;;;14.50;7.42;;;;;;;16.55;40.85;99555.78;1730429;81;21411;-50
2021/04/14 11:58:24;;;;;;;14.43;7.78;;;;;;;16.54;40.46;99558.13;1729754;81;21160;-52